Terminal Aerodrome Forecast
Issued by NWS

Current Version | Previous Version | Text Only | Print | Product List | Glossary Off
Versions: 1 2 3 4 5 6 7 8 9 10 11 12 13 14 15 16 17 18 19 20 21 22 23 24 25 26 27 28 29 30 31 32 33 34 35 36 37 38 39

000
FTUS41 KRNK 291855 AAA
TAFLWB
TAF AMD
KLWB 291855Z 2919/3018 15009KT P6SM -SHRA BKN035
     FM292000 20007KT P6SM VCTS BKN040CB
     FM300300 VRB03KT P6SM VCSH SCT035 BKN080
     FM300700 00000KT 4SM BR BKN050
     FM301000 00000KT 1/2SM FG BKN001
     FM301300 25003KT P6SM SCT020=

USA.gov is the U.S. government's official web portal to all federal, state and local government web resources and services.